sensor_id;sensor_type;location;lat;lon;timestamp;temperature;humidity
24252;DHT22;12380;51.118;4.176;2023-07-22T16:09:22;20.20;99.90
24252;DHT22;12380;51.118;4.176;2023-07-22T16:11:47;20.30;99.90
24252;DHT22;12380;51.118;4.176;2023-07-22T16:14:13;20.40;99.90
24252;DHT22;12380;51.118;4.176;2023-07-22T16:16:39;20.50;99.90
24252;DHT22;12380;51.118;4.176;2023-07-22T16:19:04;20.50;99.90
24252;DHT22;12380;51.118;4.176;2023-07-22T16:21:30;20.50;99.90
24252;DHT22;12380;51.118;4.176;2023-07-22T16:23:56;20.60;99.90
24252;DHT22;12380;51.118;4.176;2023-07-22T16:26:21;20.70;99.90
24252;DHT22;12380;51.118;4.176;2023-07-22T16:28:47;20.70;99.90
24252;DHT22;12380;51.118;4.176;2023-07-22T16:31:13;20.40;99.90
24252;DHT22;12380;51.118;4.176;2023-07-22T16:33:38;20.40;99.90
24252;DHT22;12380;51.118;4.176;2023-07-22T16:36:04;20.40;99.90
24252;DHT22;12380;51.118;4.176;2023-07-22T16:38:32;20.20;99.90
24252;DHT22;12380;51.118;4.176;2023-07-22T16:40:57;20.50;99.90
24252;DHT22;12380;51.118;4.176;2023-07-22T16:43:23;20.40;99.90
24252;DHT22;12380;51.118;4.176;2023-07-22T16:45:49;20.60;99.90
24252;DHT22;12380;51.118;4.176;2023-07-22T16:48:14;20.80;99.90
24252;DHT22;12380;51.118;4.176;2023-07-22T16:50:40;20.90;99.90
24252;DHT22;12380;51.118;4.176;2023-07-22T16:53:05;20.90;99.90
24252;DHT22;12380;51.118;4.176;2023-07-22T16:55:31;20.70;99.90
24252;DHT22;12380;51.118;4.176;2023-07-22T16:57:56;20.60;99.90
24252;DHT22;12380;51.118;4.176;2023-07-22T17:00:22;20.50;99.90
24252;DHT22;12380;51.118;4.176;2023-07-22T17:02:47;20.30;99.90
24252;DHT22;12380;51.118;4.176;2023-07-22T17:05:13;20.40;99.90
24252;DHT22;12380;51.118;4.176;2023-07-22T17:07:39;20.60;99.90
24252;DHT22;12380;51.118;4.176;2023-07-22T17:10:07;20.50;99.90
24252;DHT22;12380;51.118;4.176;2023-07-22T17:12:33;20.50;99.90
24252;DHT22;12380;51.118;4.176;2023-07-22T17:15:00;20.40;99.90
24252;DHT22;12380;51.118;4.176;2023-07-22T17:17:25;20.40;99.90
24252;DHT22;12380;51.118;4.176;2023-07-22T17:19:51;20.40;99.90
24252;DHT22;12380;51.118;4.176;2023-07-22T17:22:16;20.50;99.90
24252;DHT22;12380;51.118;4.176;2023-07-22T17:24:42;20.50;99.90
24252;DHT22;12380;51.118;4.176;2023-07-22T17:27:07;20.50;99.90
24252;DHT22;12380;51.118;4.176;2023-07-22T17:29:34;20.60;99.90
24252;DHT22;12380;51.118;4.176;2023-07-22T17:32:00;20.70;99.90
24252;DHT22;12380;51.118;4.176;2023-07-22T17:34:26;20.60;99.90
24252;DHT22;12380;51.118;4.176;2023-07-22T17:36:51;20.50;99.90
24252;DHT22;12380;51.118;4.176;2023-07-22T17:39:19;20.70;99.90
24252;DHT22;12380;51.118;4.176;2023-07-22T17:41:45;20.80;99.90
24252;DHT22;12380;51.118;4.176;2023-07-22T17:44:11;21.00;99.90
24252;DHT22;12380;51.118;4.176;2023-07-22T17:46:38;20.90;99.90
24252;DHT22;12380;51.118;4.176;2023-07-22T17:49:05;20.90;99.90
24252;DHT22;12380;51.118;4.176;2023-07-22T17:51:30;20.80;99.90
24252;DHT22;12380;51.118;4.176;2023-07-22T17:53:56;20.90;99.90
24252;DHT22;12380;51.118;4.176;2023-07-22T17:56:22;20.90;99.90
24252;DHT22;12380;51.118;4.176;2023-07-22T17:58:47;20.80;99.90
24252;DHT22;12380;51.118;4.176;2023-07-22T18:01:13;20.80;99.90
24252;DHT22;12380;51.118;4.176;2023-07-22T18:03:39;21.00;99.90
24252;DHT22;12380;51.118;4.176;2023-07-22T18:06:04;21.00;99.90
24252;DHT22;12380;51.118;4.176;2023-07-22T18:08:30;21.10;99.90
24252;DHT22;12380;51.118;4.176;2023-07-22T18:10:58;21.20;99.90
24252;DHT22;12380;51.118;4.176;2023-07-22T18:13:23;21.10;99.90
24252;DHT22;12380;51.118;4.176;2023-07-22T18:15:49;21.10;99.90
24252;DHT22;12380;51.118;4.176;2023-07-22T18:18:14;21.20;99.90
24252;DHT22;12380;51.118;4.176;2023-07-22T18:20:41;21.40;99.90
24252;DHT22;12380;51.118;4.176;2023-07-22T18:23:06;21.30;99.90
24252;DHT22;12380;51.118;4.176;2023-07-22T18:25:32;21.40;99.90
24252;DHT22;12380;51.118;4.176;2023-07-22T18:27:58;21.40;99.90
24252;DHT22;12380;51.118;4.176;2023-07-22T18:30:23;21.20;99.90
24252;DHT22;12380;51.118;4.176;2023-07-22T18:32:49;21.10;99.90
24252;DHT22;12380;51.118;4.176;2023-07-22T18:35:14;21.00;99.90
24252;DHT22;12380;51.118;4.176;2023-07-22T18:37:40;20.90;99.90
24252;DHT22;12380;51.118;4.176;2023-07-22T18:40:05;21.00;99.90
24252;DHT22;12380;51.118;4.176;2023-07-22T18:42:31;20.80;99.90
24252;DHT22;12380;51.118;4.176;2023-07-22T18:44:57;20.80;99.90
24252;DHT22;12380;51.118;4.176;2023-07-22T18:47:27;20.60;99.90
24252;DHT22;12380;51.118;4.176;2023-07-22T18:49:53;20.40;99.90
24252;DHT22;12380;51.118;4.176;2023-07-22T18:52:19;20.60;99.90
24252;DHT22;12380;51.118;4.176;2023-07-22T18:54:44;20.50;99.90
24252;DHT22;12380;51.118;4.176;2023-07-22T18:57:10;20.50;99.90
24252;DHT22;12380;51.118;4.176;2023-07-22T18:59:36;20.30;99.90
24252;DHT22;12380;51.118;4.176;2023-07-22T19:02:01;20.20;99.90
24252;DHT22;12380;51.118;4.176;2023-07-22T19:04:27;20.20;99.90
24252;DHT22;12380;51.118;4.176;2023-07-22T19:06:53;19.90;99.90
24252;DHT22;12380;51.118;4.176;2023-07-22T19:09:19;19.50;99.90
24252;DHT22;12380;51.118;4.176;2023-07-22T19:11:45;19.40;99.90
24252;DHT22;12380;51.118;4.176;2023-07-22T19:14:13;19.30;99.90
24252;DHT22;12380;51.118;4.176;2023-07-22T19:16:38;19.20;99.90
24252;DHT22;12380;51.118;4.176;2023-07-22T19:19:04;19.10;99.90
24252;DHT22;12380;51.118;4.176;2023-07-22T19:21:32;18.90;99.90
24252;DHT22;12380;51.118;4.176;2023-07-22T19:23:57;19.00;99.90
24252;DHT22;12380;51.118;4.176;2023-07-22T19:26:23;19.10;99.90
24252;DHT22;12380;51.118;4.176;2023-07-22T19:28:49;19.10;99.90
24252;DHT22;12380;51.118;4.176;2023-07-22T19:31:14;19.00;99.90
24252;DHT22;12380;51.118;4.176;2023-07-22T19:33:41;19.00;99.90
24252;DHT22;12380;51.118;4.176;2023-07-22T19:36:08;19.00;99.90
24252;DHT22;12380;51.118;4.176;2023-07-22T19:38:34;19.00;99.90
24252;DHT22;12380;51.118;4.176;2023-07-22T19:41:10;18.90;99.90
24252;DHT22;12380;51.118;4.176;2023-07-22T19:43:36;18.90;99.90
24252;DHT22;12380;51.118;4.176;2023-07-22T19:46:03;19.00;99.90
24252;DHT22;12380;51.118;4.176;2023-07-22T19:48:31;19.10;99.90
24252;DHT22;12380;51.118;4.176;2023-07-22T19:51:01;18.80;99.90
24252;DHT22;12380;51.118;4.176;2023-07-22T19:53:27;18.80;99.90
24252;DHT22;12380;51.118;4.176;2023-07-22T19:55:56;18.70;99.90
24252;DHT22;12380;51.118;4.176;2023-07-22T19:58:22;18.50;99.90
24252;DHT22;12380;51.118;4.176;2023-07-22T20:00:51;18.40;99.90
24252;DHT22;12380;51.118;4.176;2023-07-22T20:03:16;18.20;99.90
24252;DHT22;12380;51.118;4.176;2023-07-22T20:05:42;18.00;99.90
24252;DHT22;12380;51.118;4.176;2023-07-22T20:08:08;18.00;99.90
24252;DHT22;12380;51.118;4.176;2023-07-22T20:10:33;17.90;99.90
24252;DHT22;12380;51.118;4.176;2023-07-22T20:12:59;17.80;99.90
24252;DHT22;12380;51.118;4.176;2023-07-22T20:15:27;17.50;99.90
24252;DHT22;12380;51.118;4.176;2023-07-22T20:17:55;17.60;99.90
24252;DHT22;12380;51.118;4.176;2023-07-22T20:20:21;17.80;99.90
24252;DHT22;12380;51.118;4.176;2023-07-22T20:22:46;17.60;99.90
24252;DHT22;12380;51.118;4.176;2023-07-22T20:25:12;17.80;99.90
24252;DHT22;12380;51.118;4.176;2023-07-22T20:27:37;18.00;99.90
24252;DHT22;12380;51.118;4.176;2023-07-22T20:30:03;18.20;99.90
24252;DHT22;12380;51.118;4.176;2023-07-22T20:32:29;18.30;99.90
24252;DHT22;12380;51.118;4.176;2023-07-22T20:34:58;18.30;99.90
24252;DHT22;12380;51.118;4.176;2023-07-22T20:37:24;18.30;99.90
24252;DHT22;12380;51.118;4.176;2023-07-22T20:39:50;18.40;99.90
24252;DHT22;12380;51.118;4.176;2023-07-22T20:42:18;18.50;99.90
24252;DHT22;12380;51.118;4.176;2023-07-22T20:44:43;18.50;99.90
24252;DHT22;12380;51.118;4.176;2023-07-22T20:47:09;18.30;99.90
24252;DHT22;12380;51.118;4.176;2023-07-22T20:49:35;18.40;99.90
24252;DHT22;12380;51.118;4.176;2023-07-22T20:52:03;18.40;99.90
24252;DHT22;12380;51.118;4.176;2023-07-22T20:54:29;18.50;99.90
24252;DHT22;12380;51.118;4.176;2023-07-22T20:56:55;18.40;99.90
24252;DHT22;12380;51.118;4.176;2023-07-22T20:59:21;18.50;99.90
24252;DHT22;12380;51.118;4.176;2023-07-22T21:01:46;18.60;99.90
24252;DHT22;12380;51.118;4.176;2023-07-22T21:04:12;18.50;99.90
24252;DHT22;12380;51.118;4.176;2023-07-22T21:06:38;18.50;99.90
24252;DHT22;12380;51.118;4.176;2023-07-22T21:09:03;18.50;99.90
24252;DHT22;12380;51.118;4.176;2023-07-22T21:11:31;18.60;99.90
24252;DHT22;12380;51.118;4.176;2023-07-22T21:13:57;18.50;99.90
24252;DHT22;12380;51.118;4.176;2023-07-22T21:16:22;18.50;99.90
24252;DHT22;12380;51.118;4.176;2023-07-22T21:18:50;18.50;99.90
24252;DHT22;12380;51.118;4.176;2023-07-22T21:21:15;18.50;99.90
24252;DHT22;12380;51.118;4.176;2023-07-22T21:23:41;18.50;99.90
24252;DHT22;12380;51.118;4.176;2023-07-22T21:26:07;18.50;99.90
24252;DHT22;12380;51.118;4.176;2023-07-22T21:28:36;18.50;99.90
24252;DHT22;12380;51.118;4.176;2023-07-22T21:31:02;18.50;99.90
24252;DHT22;12380;51.118;4.176;2023-07-22T21:33:27;18.50;99.90
24252;DHT22;12380;51.118;4.176;2023-07-22T21:35:53;18.30;99.90
24252;DHT22;12380;51.118;4.176;2023-07-22T21:38:19;18.20;99.90
24252;DHT22;12380;51.118;4.176;2023-07-22T21:40:48;18.20;99.90
24252;DHT22;12380;51.118;4.176;2023-07-22T21:43:14;18.40;99.90
24252;DHT22;12380;51.118;4.176;2023-07-22T21:45:40;18.30;99.90
24252;DHT22;12380;51.118;4.176;2023-07-22T21:48:05;18.20;99.90
24252;DHT22;12380;51.118;4.176;2023-07-22T21:50:31;18.40;99.90
24252;DHT22;12380;51.118;4.176;2023-07-22T21:53:06;18.20;99.90
24252;DHT22;12380;51.118;4.176;2023-07-22T21:55:32;18.00;99.90
24252;DHT22;12380;51.118;4.176;2023-07-22T21:57:58;17.70;99.90
24252;DHT22;12380;51.118;4.176;2023-07-22T22:00:29;17.70;99.90
24252;DHT22;12380;51.118;4.176;2023-07-22T22:02:55;17.80;99.90
24252;DHT22;12380;51.118;4.176;2023-07-22T22:05:21;17.70;99.90
24252;DHT22;12380;51.118;4.176;2023-07-22T22:07:49;17.50;99.90
24252;DHT22;12380;51.118;4.176;2023-07-22T22:10:15;17.60;99.90
24252;DHT22;12380;51.118;4.176;2023-07-22T22:12:40;17.60;99.90
24252;DHT22;12380;51.118;4.176;2023-07-22T22:15:09;17.60;99.90
24252;DHT22;12380;51.118;4.176;2023-07-22T22:17:36;17.50;99.90
24252;DHT22;12380;51.118;4.176;2023-07-22T22:20:02;17.40;99.90
24252;DHT22;12380;51.118;4.176;2023-07-22T22:22:29;17.20;99.90
24252;DHT22;12380;51.118;4.176;2023-07-22T22:24:55;17.40;99.90
24252;DHT22;12380;51.118;4.176;2023-07-22T22:27:20;17.40;99.90
24252;DHT22;12380;51.118;4.176;2023-07-22T22:29:46;17.40;99.90
24252;DHT22;12380;51.118;4.176;2023-07-22T22:32:11;17.40;99.90
24252;DHT22;12380;51.118;4.176;2023-07-22T22:34:37;17.40;99.90
24252;DHT22;12380;51.118;4.176;2023-07-22T22:37:02;17.30;99.90
24252;DHT22;12380;51.118;4.176;2023-07-22T22:39:28;17.30;99.90
24252;DHT22;12380;51.118;4.176;2023-07-22T22:42:01;17.30;99.90
24252;DHT22;12380;51.118;4.176;2023-07-22T22:44:27;17.50;99.90
24252;DHT22;12380;51.118;4.176;2023-07-22T22:46:52;17.30;99.90
24252;DHT22;12380;51.118;4.176;2023-07-22T22:49:18;17.30;99.90
24252;DHT22;12380;51.118;4.176;2023-07-22T22:51:45;17.20;99.90
24252;DHT22;12380;51.118;4.176;2023-07-22T22:54:11;17.00;99.90
24252;DHT22;12380;51.118;4.176;2023-07-22T22:56:37;17.10;99.90
24252;DHT22;12380;51.118;4.176;2023-07-22T22:59:02;17.10;99.90
24252;DHT22;12380;51.118;4.176;2023-07-22T23:01:30;17.10;99.90
24252;DHT22;12380;51.118;4.176;2023-07-22T23:03:55;17.20;99.90
24252;DHT22;12380;51.118;4.176;2023-07-22T23:06:21;17.10;99.90
24252;DHT22;12380;51.118;4.176;2023-07-22T23:08:46;17.10;99.90
24252;DHT22;12380;51.118;4.176;2023-07-22T23:11:13;17.00;99.90
24252;DHT22;12380;51.118;4.176;2023-07-22T23:13:39;17.00;99.90
24252;DHT22;12380;51.118;4.176;2023-07-22T23:16:05;16.90;99.90
24252;DHT22;12380;51.118;4.176;2023-07-22T23:18:30;16.90;99.90
24252;DHT22;12380;51.118;4.176;2023-07-22T23:20:57;16.80;99.90
24252;DHT22;12380;51.118;4.176;2023-07-22T23:23:23;16.90;99.90
24252;DHT22;12380;51.118;4.176;2023-07-22T23:25:49;16.80;99.90
24252;DHT22;12380;51.118;4.176;2023-07-22T23:28:14;17.00;99.90
24252;DHT22;12380;51.118;4.176;2023-07-22T23:30:40;16.90;99.90
24252;DHT22;12380;51.118;4.176;2023-07-22T23:33:08;17.00;99.90
24252;DHT22;12380;51.118;4.176;2023-07-22T23:35:35;17.10;99.90
24252;DHT22;12380;51.118;4.176;2023-07-22T23:38:01;17.00;99.90
24252;DHT22;12380;51.118;4.176;2023-07-22T23:40:26;16.90;99.90
24252;DHT22;12380;51.118;4.176;2023-07-22T23:42:52;16.90;99.90
24252;DHT22;12380;51.118;4.176;2023-07-22T23:45:18;16.90;99.90
24252;DHT22;12380;51.118;4.176;2023-07-22T23:47:43;16.90;99.90
24252;DHT22;12380;51.118;4.176;2023-07-22T23:50:09;17.00;99.90
24252;DHT22;12380;51.118;4.176;2023-07-22T23:52:35;16.90;99.90
24252;DHT22;12380;51.118;4.176;2023-07-22T23:55:01;16.70;99.90
24252;DHT22;12380;51.118;4.176;2023-07-22T23:57:26;16.70;99.90
24252;DHT22;12380;51.118;4.176;2023-07-22T23:59:52;16.90;99.90
